East Bangor, Pennsylvania
Current Conditions -  °F | °C
As of 10:51 AM on Thursday 30 Oct 2014 (Local Time) from KABE Reporting Station
Few Clouds Few Clouds  
Wind Chill: 11°   Ceiling: Unl
Heat Index: 11°   Visibility: 10mi
Dew Point:   Wind: 6mph
Humidity: 66%   Direction: 310°NW
Pressure: 30.03"   Gusts: NA
Location:  40.8463°N, 75.1731°W
Report Text: KABE 301451Z 31005KT 10SM FEW031 11/05 A3003 RMK AO2 SLP170 T01110050 50005
Loading
Personal Weather Stations






























Interactive Weather Map
Tropical Storm Tracking
New forecast layout! Learn more

10-Day Weather Forecast

Advertisements
Track Severe Weather on mobile